Time;durP1;ratioP1;P1;durP2;ratioP2;P2;SDS_P1;SDS_P2;PMS_P1;PMS_P2;Temp;Humidity;BMP_temperature;BMP_pressure;BME280_temperature;BME280_humidity;BME280_pressure;Samples;Min_cycle;Max_cycle;Signal;HPM_P1;HPM_P2
2022/06/17 00:02:08;;;;;;;;;;;;;;;22.16;41.06;101780.34;5054804;28;4347;-67
2022/06/17 00:04:35;;;;;;;;;;;;;;;22.14;41.24;101785.25;5053838;28;4141;-67
2022/06/17 00:07:03;;;;;;;;;;;;;;;22.14;41.09;101777.34;5052404;28;4238;-66
2022/06/17 00:09:30;;;;;;;;;;;;;;;22.13;41.28;101784.53;5054228;28;4244;-67
2022/06/17 00:11:56;;;;;;;;;;;;;;;22.10;41.72;101774.25;5051082;28;5268;-67
2022/06/17 00:14:31;;;;;;;;;;;;;;;22.09;41.46;101781.41;5056061;28;5435;-67
2022/06/17 00:16:58;;;;;;;;;;;;;;;22.07;41.58;101780.56;5047749;28;4259;-67
2022/06/17 00:19:25;;;;;;;;;;;;;;;22.05;41.61;101784.06;5052323;28;5401;-67
2022/06/17 00:21:51;;;;;;;;;;;;;;;22.04;41.68;101787.63;5054561;28;4172;-67
2022/06/17 00:24:19;;;;;;;;;;;;;;;22.04;41.63;101787.63;5051495;28;5218;-67
2022/06/17 00:26:46;;;;;;;;;;;;;;;22.03;41.60;101798.38;5053427;28;4135;-67
2022/06/17 00:29:12;;;;;;;;;;;;;;;22.01;41.50;101795.38;5060248;28;4005;-67
2022/06/17 00:31:39;;;;;;;;;;;;;;;22.00;41.49;101802.56;5048450;28;4212;-66
2022/06/17 00:34:06;;;;;;;;;;;;;;;21.99;41.55;101803.94;5048698;28;4233;-66
2022/06/17 00:36:32;;;;;;;;;;;;;;;21.98;41.95;101802.44;5052255;28;4211;-66
2022/06/17 00:38:59;;;;;;;;;;;;;;;21.96;41.85;101805.94;5052830;28;4459;-66
2022/06/17 00:41:26;;;;;;;;;;;;;;;21.97;41.84;101806.72;5054703;28;4127;-67
2022/06/17 00:43:53;;;;;;;;;;;;;;;21.97;41.60;101806.72;5047954;28;5274;-67
2022/06/17 00:46:33;;;;;;;;;;;;;;;21.95;41.79;101806.59;5053292;28;4230;-67
2022/06/17 00:49:02;;;;;;;;;;;;;;;21.93;41.87;101803.59;5033058;28;4205;-66
2022/06/17 00:51:30;;;;;;;;;;;;;;;21.92;41.87;101810.75;5039004;28;5422;-66
2022/06/17 00:54:01;;;;;;;;;;;;;;;21.89;41.81;101812.03;5047371;28;4217;-67
2022/06/17 00:56:31;;;;;;;;;;;;;;;21.90;41.74;101813.53;5054501;28;5427;-67
2022/06/17 00:59:08;;;;;;;;;;;;;;;21.85;41.70;101806.81;5065853;28;5496;-67
2022/06/17 01:01:38;;;;;;;;;;;;;;;21.84;41.78;101801.66;5055948;28;4160;-67
2022/06/17 01:04:05;;;;;;;;;;;;;;;21.82;41.95;101802.28;5060905;28;4290;-67
2022/06/17 01:06:33;;;;;;;;;;;;;;;21.81;41.77;101811.59;5068970;28;4334;-67
2022/06/17 01:11:49;;;;;;;;;;;;;;;21.78;42.00;101818.63;5047174;28;4138;-67
2022/06/17 01:14:16;;;;;;;;;;;;;;;21.78;41.83;101807.09;5057203;28;5307;-67
2022/06/17 01:16:43;;;;;;;;;;;;;;;21.77;41.82;101817.13;5055507;28;5184;-67
2022/06/17 01:19:24;;;;;;;;;;;;;;;21.74;41.82;101814.13;5043653;28;4234;-67
2022/06/17 01:21:53;;;;;;;;;;;;;;;21.73;41.85;101811.88;5044212;28;4142;-67
2022/06/17 01:24:19;;;;;;;;;;;;;;;21.70;42.01;101818.91;5055650;28;5228;-67
2022/06/17 01:26:46;;;;;;;;;;;;;;;21.69;41.84;101818.19;5050897;28;4197;-66
2022/06/17 01:29:12;;;;;;;;;;;;;;;21.68;42.04;101816.66;5051373;28;5214;-66
2022/06/17 01:31:40;;;;;;;;;;;;;;;21.66;42.03;101819.44;5048996;28;5487;-67
2022/06/17 01:34:07;;;;;;;;;;;;;;;21.65;42.00;101814.31;5058645;28;4154;-66
2022/06/17 01:36:33;;;;;;;;;;;;;;;21.65;42.06;101812.19;5043706;28;4216;-67
2022/06/17 01:39:00;;;;;;;;;;;;;;;21.63;42.00;101806.31;5033139;28;5319;-66
2022/06/17 01:41:27;;;;;;;;;;;;;;;21.62;41.81;101812.69;5044351;28;4062;-67
2022/06/17 01:44:03;;;;;;;;;;;;;;;21.58;41.83;101807.47;5036412;28;4263;-66
2022/06/17 01:46:34;;;;;;;;;;;;;;;21.57;42.06;101810.97;5035088;28;5218;-67
2022/06/17 01:49:05;;;;;;;;;;;;;;;21.54;41.81;101813.72;5036024;28;5397;-67
2022/06/17 01:51:32;;;;;;;;;;;;;;;21.53;41.87;101812.25;5040235;28;4209;-66
2022/06/17 01:53:59;;;;;;;;;;;;;;;21.54;41.86;101813.00;5036026;28;4487;-67
2022/06/17 01:56:28;;;;;;;;;;;;;;;21.51;41.81;101808.50;5041006;28;4183;-67
2022/06/17 01:58:58;;;;;;;;;;;;;;;21.48;41.61;101821.28;5037028;28;4187;-66
2022/06/17 02:01:24;;;;;;;;;;;;;;;21.46;41.94;101821.94;5018964;28;4168;-67
2022/06/17 02:03:54;;;;;;;;;;;;;;;21.47;41.81;101819.78;5033622;28;5580;-67
2022/06/17 02:06:21;;;;;;;;;;;;;;;21.43;41.76;101825.31;5017358;28;5223;-67
2022/06/17 02:08:47;;;;;;;;;;;;;;;21.44;41.96;101824.69;5033143;28;4090;-67
2022/06/17 02:11:14;;;;;;;;;;;;;;;21.43;41.84;101819.56;5046071;28;4047;-67
2022/06/17 02:13:47;;;;;;;;;;;;;;;21.41;41.71;101823.06;5037528;28;4206;-66
2022/06/17 02:16:41;;;;;;;;;;;;;;;21.38;41.86;101823.56;5033678;28;4133;-66
2022/06/17 02:19:26;;;;;;;;;;;;;;;21.37;41.68;101836.47;5035663;28;4186;-67
2022/06/17 02:22:09;;;;;;;;;;;;;;;21.34;41.92;101827.69;5028766;28;4115;-67
2022/06/17 02:24:36;;;;;;;;;;;;;;;21.33;41.72;101822.59;5030055;28;4138;-67
2022/06/17 02:27:03;;;;;;;;;;;;;;;21.31;41.65;101826.09;5040137;28;4147;-67
2022/06/17 02:29:30;;;;;;;;;;;;;;;21.28;41.69;101826.59;5024693;28;4231;-66
2022/06/17 02:32:02;;;;;;;;;;;;;;;21.27;41.68;101834.50;5041218;28;4144;-67
2022/06/17 02:34:28;;;;;;;;;;;;;;;21.26;41.67;101844.53;5037084;28;4242;-67
2022/06/17 02:36:56;;;;;;;;;;;;;;;21.24;41.68;101838.66;5019048;28;4203;-67
2022/06/17 02:39:27;;;;;;;;;;;;;;;21.22;41.74;101837.78;5058328;28;6752;-67
2022/06/17 02:41:53;;;;;;;;;;;;;;;21.20;41.77;101835.53;5038986;28;4226;-66
2022/06/17 02:44:21;;;;;;;;;;;;;;;21.20;41.85;101835.53;5029198;28;4173;-66
2022/06/17 02:46:48;;;;;;;;;;;;;;;21.18;41.78;101823.88;5038872;28;5397;-67
2022/06/17 02:49:22;;;;;;;;;;;;;;;21.15;41.84;101825.16;5021011;28;5503;-66
2022/06/17 02:51:49;;;;;;;;;;;;;;;21.12;42.10;101814.91;5022963;28;4148;-66
2022/06/17 02:54:24;;;;;;;;;;;;;;;21.12;42.06;101820.66;5038313;28;4162;-67
2022/06/17 02:56:52;;;;;;;;;;;;;;;21.11;42.07;101819.88;5048281;28;4245;-67
2022/06/17 02:59:20;;;;;;;;;;;;;;;21.11;41.96;101824.91;5035174;28;4304;-66
2022/06/17 03:01:48;;;;;;;;;;;;;;;21.09;42.04;101821.91;5015366;28;4057;-66
2022/06/17 03:04:28;;;;;;;;;;;;;;;21.07;42.29;101824.66;5049147;28;4178;-66
2022/06/17 03:06:54;;;;;;;;;;;;;;;21.04;42.24;101823.78;5030263;28;4211;-67
2022/06/17 03:09:22;;;;;;;;;;;;;;;21.04;42.34;101814.41;5034574;28;4139;-67
2022/06/17 03:11:52;;;;;;;;;;;;;;;21.04;42.34;101818.03;5037031;28;5451;-66
2022/06/17 03:14:18;;;;;;;;;;;;;;;21.04;42.40;101820.16;5042137;28;4195;-67
2022/06/17 03:16:47;;;;;;;;;;;;;;;21.03;42.37;101815.81;5032330;28;4033;-67
2022/06/17 03:19:14;;;;;;;;;;;;;;;21.00;42.66;101819.94;5051062;28;4194;-67
2022/06/17 03:21:41;;;;;;;;;;;;;;;20.98;42.71;101817.69;5051026;28;4199;-67
2022/06/17 03:24:12;;;;;;;;;;;;;;;21.00;42.64;101825.69;5035413;28;4224;-67
2022/06/17 03:26:40;;;;;;;;;;;;;;;20.99;42.73;101824.19;5048928;28;4065;-66
2022/06/17 03:29:06;;;;;;;;;;;;;;;20.97;42.82;101812.56;5056100;28;4343;-67
2022/06/17 03:31:34;;;;;;;;;;;;;;;20.97;42.76;101809.69;5069307;28;4230;-67
2022/06/17 03:34:05;;;;;;;;;;;;;;;20.94;42.97;101817.44;5039140;28;4164;-67
2022/06/17 03:36:32;;;;;;;;;;;;;;;20.93;43.10;101815.94;5033873;28;4298;-66
2022/06/17 03:39:00;;;;;;;;;;;;;;;20.91;43.16;101816.59;5036818;28;4223;-67
2022/06/17 03:41:33;;;;;;;;;;;;;;;20.89;43.05;101830.84;5052359;28;4162;-67
2022/06/17 03:44:04;;;;;;;;;;;;;;;20.89;43.21;101827.97;5052990;28;4228;-67
2022/06/17 03:46:32;;;;;;;;;;;;;;;20.89;43.27;101832.97;5057903;28;5224;-67
2022/06/17 03:49:02;;;;;;;;;;;;;;;20.88;43.01;101837.97;5041699;28;4262;-67
2022/06/17 03:51:28;;;;;;;;;;;;;;;20.86;43.34;101840.72;5041944;28;4055;-67
2022/06/17 03:53:57;;;;;;;;;;;;;;;20.89;43.09;101844.47;5053254;28;4166;-67
2022/06/17 03:56:26;;;;;;;;;;;;;;;20.86;43.36;101840.00;5054221;28;4400;-67
2022/06/17 03:58:53;;;;;;;;;;;;;;;20.84;43.57;101857.13;5035131;28;4287;-67
2022/06/17 04:01:39;;;;;;;;;;;;;;;20.86;43.61;101857.25;5051491;28;5315;-67
2022/06/17 04:04:19;;;;;;;;;;;;;;;20.86;43.62;101857.25;5042031;28;5460;-67
2022/06/17 04:06:46;;;;;;;;;;;;;;;20.84;43.81;101860.75;5053272;28;4027;-66
2022/06/17 04:09:17;;;;;;;;;;;;;;;20.85;43.84;101861.53;5053376;28;4148;-66
2022/06/17 04:11:46;;;;;;;;;;;;;;;20.86;43.98;101863.03;5038871;28;4230;-67
2022/06/17 04:14:17;;;;;;;;;;;;;;;20.84;44.26;101872.28;5040722;28;4065;-67
2022/06/17 04:16:44;;;;;;;;;;;;;;;20.85;44.48;101878.81;5042957;28;4301;-67
2022/06/17 04:19:17;;;;;;;;;;;;;;;20.86;44.40;101872.41;5039763;28;4217;-66
2022/06/17 04:21:51;;;;;;;;;;;;;;;20.86;44.62;101869.53;5054198;28;4201;-66
2022/06/17 04:24:20;;;;;;;;;;;;;;;20.86;44.75;101874.53;5053487;28;4490;-66
2022/06/17 04:26:56;;;;;;;;;;;;;;;20.89;44.61;101867.50;5033737;28;4348;-66
2022/06/17 04:29:34;;;;;;;;;;;;;;;20.90;44.71;101863.28;5036043;28;5495;-66
2022/06/17 04:32:14;;;;;;;;;;;;;;;20.91;44.85;101874.16;5040183;28;5512;-67
2022/06/17 04:34:41;;;;;;;;;;;;;;;20.89;44.91;101874.03;5043072;28;4067;-67
2022/06/17 04:37:12;;;;;;;;;;;;;;;20.88;45.16;101875.41;5053628;28;4153;-66
2022/06/17 04:39:58;;;;;;;;;;;;;;;20.88;45.28;101883.28;5043632;28;4208;-67
2022/06/17 04:42:45;;;;;;;;;;;;;;;20.93;45.37;101882.91;5050690;28;6305;-67
2022/06/17 04:45:21;;;;;;;;;;;;;;;20.95;45.31;101876.53;5043628;28;5260;-69
2022/06/17 04:47:49;;;;;;;;;;;;;;;20.03;47.64;101885.97;5054682;28;4101;-63
2022/06/17 04:50:19;;;;;;;;;;;;;;;19.66;48.60;101895.06;5054037;28;4200;-64
2022/06/17 04:52:47;;;;;;;;;;;;;;;19.27;49.86;101888.16;5052335;28;4253;-64
2022/06/17 04:55:29;;;;;;;;;;;;;;;18.95;51.00;101887.44;5068193;28;4227;-63
2022/06/17 04:58:19;;;;;;;;;;;;;;;18.77;51.91;101890.53;5033330;28;4094;-64
2022/06/17 05:00:54;;;;;;;;;;;;;;;19.00;51.39;101883.47;5042717;28;4229;-64
2022/06/17 05:03:41;;;;;;;;;;;;;;;18.94;51.79;101888.78;5036982;28;4218;-64
2022/06/17 05:06:31;;;;;;;;;;;;;;;18.62;52.55;101885.16;5059426;28;4135;-64
2022/06/17 05:09:01;;;;;;;;;;;;;;;18.66;52.91;101891.19;5032950;28;4221;-64
2022/06/17 05:11:28;;;;;;;;;;;;;;;18.65;53.37;101901.16;5054026;28;6425;-64
2022/06/17 05:13:57;;;;;;;;;;;;;;;18.67;53.31;101898.44;5025432;28;4190;-63
2022/06/17 05:16:25;;;;;;;;;;;;;;;18.76;53.33;101880.41;5055842;28;4158;-62
2022/06/17 05:18:51;;;;;;;;;;;;;;;18.53;53.66;101894.56;5046733;28;4042;-66
2022/06/17 05:21:19;;;;;;;;;;;;;;;18.71;53.51;101892.22;5051009;28;4272;-72
2022/06/17 05:23:50;;;;;;;;;;;;;;;19.22;52.28;101893.59;5046092;28;4260;-71
2022/06/17 05:26:16;;;;;;;;;;;;;;;18.92;53.14;101880.03;5052758;28;4156;-71
2022/06/17 05:28:46;;;;;;;;;;;;;;;19.04;52.99;101883.75;5059273;28;4136;-71
2022/06/17 05:31:19;;;;;;;;;;;;;;;19.12;52.98;101884.28;5052396;28;4166;-69
2022/06/17 05:33:51;;;;;;;;;;;;;;;19.39;52.34;101889.69;5058338;28;5301;-67
2022/06/17 05:36:18;;;;;;;;;;;;;;;19.10;53.26;101889.16;5053938;28;4067;-70
2022/06/17 05:38:47;;;;;;;;;;;;;;;18.78;53.69;101894.16;5049841;28;4064;-70
2022/06/17 05:41:15;;;;;;;;;;;;;;;18.82;54.18;101885.84;5051432;28;4203;-70
2022/06/17 05:43:41;;;;;;;;;;;;;;;18.89;53.61;101884.16;5052753;28;5313;-70
2022/06/17 05:46:16;;;;;;;;;;;;;;;19.12;53.37;101880.69;5055907;28;4162;-66
2022/06/17 05:48:54;;;;;;;;;;;;;;;18.84;53.22;101881.00;5057662;28;4153;-66
2022/06/17 05:51:42;;;;;;;;;;;;;;;18.93;53.24;101884.44;5057091;28;4241;-66
2022/06/17 05:54:20;;;;;;;;;;;;;;;18.65;53.69;101880.31;5054953;28;4355;-66
2022/06/17 05:56:59;;;;;;;;;;;;;;;18.84;53.24;101883.84;5061358;28;4230;-67
2022/06/17 05:59:30;;;;;;;;;;;;;;;18.94;53.33;101880.19;5069408;28;4201;-67
2022/06/17 06:01:57;;;;;;;;;;;;;;;19.03;52.96;101882.25;5047485;28;4202;-64
2022/06/17 06:04:38;;;;;;;;;;;;;;;19.03;53.34;101882.25;5051544;28;5038;-64
2022/06/17 06:07:04;;;;;;;;;;;;;;;19.20;53.24;101879.09;5054068;28;4229;-63
2022/06/17 06:09:30;;;;;;;;;;;;;;;19.25;52.61;101892.38;5044530;28;4110;-64
2022/06/17 06:11:57;;;;;;;;;;;;;;;19.43;52.38;101901.47;5045819;28;4027;-65
2022/06/17 06:14:23;;;;;;;;;;;;;;;19.37;52.76;101897.44;5051705;28;4007;-65
2022/06/17 06:16:50;;;;;;;;;;;;;;;19.31;52.93;101911.38;5055069;28;5464;-65
2022/06/17 06:19:17;;;;;;;;;;;;;;;19.21;52.83;101902.84;5053276;28;4260;-66
2022/06/17 06:21:43;;;;;;;;;;;;;;;19.39;52.96;101901.19;5049581;28;4011;-66
2022/06/17 06:24:11;;;;;;;;;;;;;;;19.48;52.69;101911.09;5071947;28;4295;-67
2022/06/17 06:26:37;;;;;;;;;;;;;;;19.49;52.64;101914.72;5052630;28;5219;-65
2022/06/17 06:29:20;;;;;;;;;;;;;;;19.56;52.41;101914.53;5056208;28;4153;-64
2022/06/17 06:31:48;;;;;;;;;;;;;;;19.31;52.67;101917.13;5059309;28;4078;-64
2022/06/17 06:34:27;;;;;;;;;;;;;;;19.69;52.08;101921.09;5060411;28;4200;-52
2022/06/17 06:36:53;;;;;;;;;;;;;;;19.83;51.65;101919.16;5053708;28;4173;-49
2022/06/17 06:39:21;;;;;;;;;;;;;;;19.95;51.34;101922.06;5061739;28;6225;-51
2022/06/17 06:41:50;;;;;;;;;;;;;;;20.14;51.83;101924.00;5075624;28;4447;-67
2022/06/17 06:44:18;;;;;;;;;;;;;;;20.40;51.21;101922.78;5057631;28;5264;-65
2022/06/17 06:47:00;;;;;;;;;;;;;;;20.62;50.63;101919.88;5055862;28;4190;-67
2022/06/17 06:49:35;;;;;;;;;;;;;;;20.66;50.22;101931.59;5056770;28;4235;-64
2022/06/17 06:52:01;;;;;;;;;;;;;;;20.76;49.75;101935.13;5060819;28;4168;-64
2022/06/17 06:54:27;;;;;;;;;;;;;;;20.86;49.51;101923.47;5062290;28;5404;-59
2022/06/17 06:56:55;;;;;;;;;;;;;;;20.93;49.46;101942.63;5057706;28;4343;-60
2022/06/17 06:59:42;;;;;;;;;;;;;;;20.97;49.29;101930.63;5075861;28;4979;-59
2022/06/17 07:02:09;;;;;;;;;;;;;;;20.80;49.48;101941.13;5054878;28;4221;-59
2022/06/17 07:04:36;;;;;;;;;;;;;;;20.96;49.38;101940.63;5055758;28;4202;-59
2022/06/17 07:07:02;;;;;;;;;;;;;;;20.71;49.62;101939.13;5044280;28;4216;-58
2022/06/17 07:09:28;;;;;;;;;;;;;;;20.54;50.04;101942.34;5046189;28;4272;-59
2022/06/17 07:11:55;;;;;;;;;;;;;;;20.78;49.85;101943.16;5044214;28;4048;-61
2022/06/17 07:14:21;;;;;;;;;;;;;;;21.03;49.29;101945.41;5028188;28;6633;-61
2022/06/17 07:16:48;;;;;;;;;;;;;;;21.10;49.26;101941.50;5042642;28;5307;-60
2022/06/17 07:19:16;;;;;;;;;;;;;;;20.82;49.26;101940.50;5052340;28;4423;-59
2022/06/17 07:21:42;;;;;;;;;;;;;;;20.76;49.23;101940.13;5051126;28;5716;-58
2022/06/17 07:24:09;;;;;;;;;;;;;;;21.07;49.01;101939.84;5048646;28;4170;-56
2022/06/17 07:26:35;;;;;;;;;;;;;;;21.17;48.63;101946.25;5047898;28;4132;-58
2022/06/17 07:29:02;;;;;;;;;;;;;;;21.23;48.85;101952.34;5052057;28;4143;-58
2022/06/17 07:31:29;;;;;;;;;;;;;;;21.24;48.49;101944.50;5050147;28;5321;-58
2022/06/17 07:34:01;;;;;;;;;;;;;;;21.31;48.49;101949.97;5051418;28;4247;-58
2022/06/17 07:41:59;;;;;;;;;;;;;;;21.42;47.43;101951.38;5055316;28;4076;-63
2022/06/17 07:44:25;;;;;;;;;;;;;;;21.34;47.50;101957.34;5051983;28;4090;-60
2022/06/17 07:46:52;;;;;;;;;;;;;;;21.39;47.18;101949.69;5052854;28;4157;-60
2022/06/17 07:49:19;;;;;;;;;;;;;;;21.52;47.03;101951.94;5057023;28;4198;-59
2022/06/17 07:51:46;;;;;;;;;;;;;;;21.61;47.19;101958.94;5043909;28;5274;-60
2022/06/17 07:54:12;;;;;;;;;;;;;;;21.70;46.85;101958.03;5049433;28;5438;-61
2022/06/17 07:56:39;;;;;;;;;;;;;;;21.62;46.70;101957.56;5052552;28;4408;-61
2022/06/17 07:59:06;;;;;;;;;;;;;;;21.53;46.21;101955.56;5053103;28;4159;-61
2022/06/17 08:01:32;;;;;;;;;;;;;;;21.64;46.46;101965.59;5061343;28;4256;-59
2022/06/17 08:04:01;;;;;;;;;;;;;;;21.77;46.63;101955.53;5053308;28;4101;-60
2022/06/17 08:06:27;;;;;;;;;;;;;;;21.60;46.41;101960.34;5054588;28;4564;-58
2022/06/17 08:08:54;;;;;;;;;;;;;;;21.66;46.76;101963.56;5051568;28;4544;-55
2022/06/17 08:11:20;;;;;;;;;;;;;;;21.64;46.46;101960.56;5046657;28;5853;-49
2022/06/17 08:13:53;;;;;;;;;;;;;;;21.70;46.36;101952.28;5050285;28;4208;-56
2022/06/17 08:16:20;;;;;;;;;;;;;;;21.52;46.27;101965.63;5054054;28;4158;-54
2022/06/17 08:18:46;;;;;;;;;;;;;;;21.67;46.02;101961.44;5043930;28;4075;-56
2022/06/17 08:21:15;;;;;;;;;;;;;;;21.71;45.83;101958.78;5046366;28;4275;-51
2022/06/17 08:24:02;;;;;;;;;;;;;;;21.72;45.78;101955.28;5054839;28;4195;-53
2022/06/17 08:26:28;;;;;;;;;;;;;;;21.64;45.25;101960.56;5053718;28;4222;-54
2022/06/17 08:28:55;;;;;;;;;;;;;;;21.47;44.93;101969.66;5045533;28;4078;-56
2022/06/17 08:31:29;;;;;;;;;;;;;;;21.59;44.07;101970.34;5045015;28;4991;-59
2022/06/17 08:33:56;;;;;;;;;;;;;;;21.61;44.14;101967.59;5047879;28;4051;-58
2022/06/17 08:36:28;;;;;;;;;;;;;;;21.62;44.65;101971.97;5044381;28;5619;-58
2022/06/17 08:39:00;;;;;;;;;;;;;;;21.50;44.12;101962.63;5048457;28;4231;-60
2022/06/17 08:41:28;;;;;;;;;;;;;;;21.68;44.67;101960.81;5047262;28;4446;-58
2022/06/17 08:44:07;;;;;;;;;;;;;;;21.80;43.96;101955.00;5051840;28;4191;-59
2022/06/17 08:46:38;;;;;;;;;;;;;;;21.77;43.94;101955.53;5052679;28;4226;-59
2022/06/17 08:49:20;;;;;;;;;;;;;;;21.98;43.54;101963.19;5049812;28;4210;-61
2022/06/17 08:52:11;;;;;;;;;;;;;;;22.12;42.79;101961.13;5050359;28;4222;-60
2022/06/17 08:54:53;;;;;;;;;;;;;;;21.94;43.36;101958.72;5039078;28;5213;-60
2022/06/17 08:57:25;;;;;;;;;;;;;;;22.01;43.51;101951.13;5052668;28;4144;-59
2022/06/17 08:59:56;;;;;;;;;;;;;;;22.05;43.49;101957.13;5053750;28;5519;-59
2022/06/17 09:02:41;;;;;;;;;;;;;;;22.12;43.08;101961.88;5048864;28;5254;-59
2022/06/17 09:05:20;;;;;;;;;;;;;;;22.17;42.59;101952.06;5050000;28;4202;-59
2022/06/17 09:07:49;;;;;;;;;;;;;;;22.15;42.50;101943.31;5050884;28;4442;-59
2022/06/17 09:10:32;;;;;;;;;;;;;;;22.10;42.62;101935.78;5049286;28;4159;-58
2022/06/17 09:13:17;;;;;;;;;;;;;;;22.05;41.24;101939.09;5051338;28;4178;-60
2022/06/17 09:15:45;;;;;;;;;;;;;;;21.95;40.22;101942.16;5053190;28;4280;-60
2022/06/17 09:18:17;;;;;;;;;;;;;;;21.91;40.72;101941.91;5055145;28;4250;-60
2022/06/17 09:20:44;;;;;;;;;;;;;;;22.08;40.19;101932.81;5055707;28;4207;-59
2022/06/17 09:23:12;;;;;;;;;;;;;;;22.16;40.86;101933.25;5053792;28;4134;-58
2022/06/17 09:25:43;;;;;;;;;;;;;;;22.20;40.46;101921.19;5055604;28;5476;-62
2022/06/17 09:28:10;;;;;;;;;;;;;;;22.17;40.70;101917.47;5057171;28;4225;-62
2022/06/17 09:30:38;;;;;;;;;;;;;;;22.24;40.77;101923.56;5055373;28;5446;-62
2022/06/17 09:33:09;;;;;;;;;;;;;;;22.22;40.39;101923.47;5054411;28;4302;-62
2022/06/17 09:36:01;;;;;;;;;;;;;;;22.25;40.47;101928.72;5056821;28;5244;-60
2022/06/17 09:38:31;;;;;;;;;;;;;;;22.07;39.99;101921.91;5033764;28;4276;-59
2022/06/17 09:41:18;;;;;;;;;;;;;;;22.22;40.42;101926.34;5058606;28;4445;-60
2022/06/17 09:43:52;;;;;;;;;;;;;;;22.32;40.28;101921.16;5053475;28;4186;-60
2022/06/17 09:46:20;;;;;;;;;;;;;;;22.31;40.13;101925.41;5053837;28;4066;-60
2022/06/17 09:48:54;;;;;;;;;;;;;;;23.11;39.83;101921.00;5053530;28;4349;-57
2022/06/17 09:51:26;;;;;;;;;;;;;;;23.34;39.02;101929.47;5054933;28;5271;-57
2022/06/17 09:53:54;;;;;;;;;;;;;;;23.35;37.74;101925.16;5057564;28;4143;-60
2022/06/17 09:56:24;;;;;;;;;;;;;;;23.39;38.62;101916.69;5053364;28;4265;-61
2022/06/17 09:59:01;;;;;;;;;;;;;;;23.13;39.12;101921.13;5051665;28;5519;-59
2022/06/17 10:01:27;;;;;;;;;;;;;;;22.93;39.92;101912.88;5052186;28;4245;-59
2022/06/17 10:03:53;;;;;;;;;;;;;;;23.00;40.23;101917.59;5050211;28;4356;-61
2022/06/17 10:06:26;;;;;;;;;;;;;;;23.05;39.68;101906.28;5053977;28;4309;-58
2022/06/17 10:09:01;;;;;;;;;;;;;;;23.35;39.42;101907.81;5051931;28;4051;-59
2022/06/17 10:11:42;;;;;;;;;;;;;;;23.48;40.08;101899.75;5053321;28;4199;-59
2022/06/17 10:14:23;;;;;;;;;;;;;;;23.52;40.09;101899.97;5053356;28;4204;-60
2022/06/17 10:20:03;;;;;;;;;;;;;;;23.02;38.71;101907.53;5054375;28;5253;-59
2022/06/17 10:22:51;;;;;;;;;;;;;;;23.00;39.46;101894.50;5051843;28;4167;-58
2022/06/17 10:25:26;;;;;;;;;;;;;;;22.85;38.82;101903.03;5053812;28;5424;-59
2022/06/17 10:27:57;;;;;;;;;;;;;;;22.69;39.14;101900.03;5053101;28;4230;-61
2022/06/17 10:30:42;;;;;;;;;;;;;;;22.46;38.75;101904.59;5053440;28;4276;-62
2022/06/17 10:33:10;;;;;;;;;;;;;;;22.43;38.77;101902.25;5048464;28;4298;-62
2022/06/17 10:35:38;;;;;;;;;;;;;;;22.64;38.96;101899.06;5053469;28;4099;-62
2022/06/17 10:38:06;;;;;;;;;;;;;;;22.69;39.24;101900.03;5052330;28;4274;-58
2022/06/17 10:40:33;;;;;;;;;;;;;;;22.74;38.88;101898.84;5046670;28;4251;-59
2022/06/17 10:43:00;;;;;;;;;;;;;;;22.70;39.20;101896.50;5043202;28;4244;-61
2022/06/17 10:45:26;;;;;;;;;;;;;;;22.59;38.28;101892.31;5042932;28;4194;-61
2022/06/17 10:47:54;;;;;;;;;;;;;;;22.68;39.50;101887.00;5051950;28;4093;-59
2022/06/17 10:50:22;;;;;;;;;;;;;;;22.77;39.45;101894.69;5042412;28;4159;-58
2022/06/17 10:53:07;;;;;;;;;;;;;;;22.79;40.47;101894.78;5049217;28;4239;-59
2022/06/17 10:55:38;;;;;;;;;;;;;;;22.83;40.84;101892.13;5052498;28;4150;-59
2022/06/17 10:58:08;;;;;;;;;;;;;;;22.86;40.75;101892.97;5052560;28;5148;-60
2022/06/17 11:00:40;;;;;;;;;;;;;;;22.87;40.82;101892.34;5053526;28;5266;-59
2022/06/17 11:03:23;;;;;;;;;;;;;;;22.89;41.05;101883.78;5052951;28;4229;-60
2022/06/17 11:05:54;;;;;;;;;;;;;;;22.92;41.27;101882.47;5053882;28;4133;-60
2022/06/17 11:08:20;;;;;;;;;;;;;;;22.94;41.13;101881.84;5048381;28;4098;-61
2022/06/17 11:10:53;;;;;;;;;;;;;;;23.00;41.32;101879.31;5051558;28;4078;-62
2022/06/17 11:13:20;;;;;;;;;;;;;;;23.02;41.35;101861.31;5053339;28;5298;-60
2022/06/17 11:15:50;;;;;;;;;;;;;;;23.01;41.31;101866.34;5054232;28;4226;-58
2022/06/17 11:18:20;;;;;;;;;;;;;;;22.95;41.69;101863.88;5046800;28;5212;-58
2022/06/17 11:20:58;;;;;;;;;;;;;;;22.89;41.77;101854.91;5050538;28;4064;-60
2022/06/17 11:27:29;;;;;;;;;;;;;;;22.80;41.96;101852.97;5040316;28;5472;-59
2022/06/17 11:29:56;;;;;;;;;;;;;;;22.78;41.88;101861.53;5051300;28;4194;-58
2022/06/17 11:32:27;;;;;;;;;;;;;;;22.77;42.07;101852.13;5053749;28;5184;-59
2022/06/17 11:34:54;;;;;;;;;;;;;;;22.75;42.13;101857.78;5048860;28;4222;-58
2022/06/17 11:37:21;;;;;;;;;;;;;;;22.74;42.04;101852.66;5050937;28;4080;-58
2022/06/17 11:39:47;;;;;;;;;;;;;;;22.73;41.84;101854.06;5052306;28;5374;-58
2022/06/17 11:42:22;;;;;;;;;;;;;;;22.72;41.93;101852.53;5048154;28;4193;-61
2022/06/17 11:44:55;;;;;;;;;;;;;;;22.72;42.24;101853.31;5047912;28;4157;-61
2022/06/17 11:47:22;;;;;;;;;;;;;;;22.71;42.30;101853.94;5050790;28;4267;-61
2022/06/17 11:49:49;;;;;;;;;;;;;;;22.71;42.39;101856.84;5048889;28;5525;-62
2022/06/17 11:52:24;;;;;;;;;;;;;;;22.70;42.23;101843.78;5050782;28;5251;-59
2022/06/17 11:54:52;;;;;;;;;;;;;;;22.70;42.51;101850.31;5054743;28;4338;-59
2022/06/17 11:57:19;;;;;;;;;;;;;;;22.71;42.37;101845.28;5054550;28;5582;-59
2022/06/17 11:59:47;;;;;;;;;;;;;;;22.70;42.32;101838.00;5050991;28;4288;-59
2022/06/17 12:02:14;;;;;;;;;;;;;;;22.69;42.47;101834.38;5053372;28;4210;-60
2022/06/17 12:04:49;;;;;;;;;;;;;;;22.69;42.81;101830.75;5050837;28;4245;-59
2022/06/17 12:07:25;;;;;;;;;;;;;;;22.70;42.64;101824.34;5053577;28;4179;-59
2022/06/17 12:09:52;;;;;;;;;;;;;;;22.69;42.99;101819.94;5053306;28;4193;-59
2022/06/17 12:12:18;;;;;;;;;;;;;;;22.69;42.96;101814.16;5047503;28;4215;-59
2022/06/17 12:14:44;;;;;;;;;;;;;;;22.70;43.16;101820.69;5054150;28;4285;-59
2022/06/17 12:17:11;;;;;;;;;;;;;;;22.70;42.96;101809.91;5053523;28;4189;-59
2022/06/17 12:19:50;;;;;;;;;;;;;;;22.69;43.18;101819.94;5052254;28;4217;-59
2022/06/17 12:22:20;;;;;;;;;;;;;;;22.70;43.12;101801.22;5052780;28;4186;-59
2022/06/17 12:24:49;;;;;;;;;;;;;;;22.70;43.43;101814.91;5050937;28;5219;-59
2022/06/17 12:27:20;;;;;;;;;;;;;;;22.69;43.21;101801.88;5055804;28;4212;-59
2022/06/17 12:30:11;;;;;;;;;;;;;;;22.70;43.43;101812.00;5054181;28;4205;-59
2022/06/17 12:32:41;;;;;;;;;;;;;;;22.69;43.59;101807.63;5046670;28;4096;-59
2022/06/17 12:35:07;;;;;;;;;;;;;;;22.69;43.46;101801.88;5052197;28;4294;-59
2022/06/17 12:37:33;;;;;;;;;;;;;;;22.69;43.71;101810.53;5051295;28;4347;-59
2022/06/17 12:40:02;;;;;;;;;;;;;;;22.70;43.79;101815.66;5047547;28;4170;-62
2022/06/17 12:42:31;;;;;;;;;;;;;;;22.73;43.67;101814.38;5045013;28;4228;-57
2022/06/17 12:45:01;;;;;;;;;;;;;;;22.83;44.21;101810.50;5053232;28;4176;-59
2022/06/17 12:47:34;;;;;;;;;;;;;;;22.89;43.72;101814.47;5051052;28;4311;-59
2022/06/17 12:53:26;;;;;;;;;;;;;;;23.04;43.36;101812.31;5050947;28;4075;-64
2022/06/17 12:56:11;;;;;;;;;;;;;;;23.06;43.53;101815.31;5053859;28;4277;-60
2022/06/17 12:58:52;;;;;;;;;;;;;;;23.09;43.68;101814.78;5051874;28;4230;-58
2022/06/17 13:01:25;;;;;;;;;;;;;;;23.15;44.47;101808.53;5054156;28;5345;-56
2022/06/17 13:03:54;;;;;;;;;;;;;;;22.97;43.78;101808.34;5050826;28;5286;-59
2022/06/17 13:06:25;;;;;;;;;;;;;;;22.98;44.16;101804.06;5047955;28;4218;-63
2022/06/17 13:09:02;;;;;;;;;;;;;;;23.09;43.78;101805.34;5060824;28;4267;-58
2022/06/17 13:11:35;;;;;;;;;;;;;;;23.14;43.65;101807.81;5052639;28;4195;-59
2022/06/17 13:14:17;;;;;;;;;;;;;;;23.05;43.58;101799.38;5051131;28;5281;-58
2022/06/17 13:16:46;;;;;;;;;;;;;;;22.98;43.79;101795.41;5055387;28;4958;-59
2022/06/17 13:19:31;;;;;;;;;;;;;;;22.94;43.75;101793.06;5051885;28;5559;-61
2022/06/17 13:22:10;;;;;;;;;;;;;;;22.92;44.08;101789.31;5048771;28;4229;-59
2022/06/17 13:24:57;;;;;;;;;;;;;;;22.90;43.98;101789.22;5052783;28;4167;-59
2022/06/17 13:27:24;;;;;;;;;;;;;;;22.83;44.20;101782.38;5048889;28;4125;-59